Weather observations for the past three days for
Andrews-Murphy Airport
Metric (Imperial)
Date Time (edt) Wind (kph) Vis. (km) Weather Sky Cond. Temperature (ºC) Relative Humidity Wind Chill (°C) Heat Index (°C) Pressure Precipitation (cm)
Air Dwpt 6 hour altimeter (cm) sea level (mb) 1 hr 3 hr 6 hr
Max. Min.
05 10:55 W 11 16.09 Fair CLR 20.1 7.1 43% 76.3 0.0
05 10:35 Calm 16.09 Fair CLR 18.9 7.8 49% 76.3 0.0
05 10:15 Calm 16.09 Fair CLR 17.8 7.7 52% 76.3 0.0
05 09:55 Calm 16.09 Fair CLR 15.8 8.1 60% 76.33 0.0
05 09:35 Calm 16.09 Fair CLR 13.5 8.7 73% 76.3 0.0
05 09:15 Calm 16.09 Fair CLR 12.1 8.9 81% 76.3 0.0
05 08:55 Calm 16.09 Fair CLR 10.5 8.5 88% 76.3 0.0
05 08:35 Calm 16.09 Fair CLR 9.8 8.5 92% 76.28 0.0
05 07:55 Calm 16.09 Fair CLR 7.8 7.1 8.1 4.3 95% 76.28 0.0
05 07:35 Calm 16.09 Fair CLR 7 6.2 95% 76.28 0.0
05 07:15 Calm 11.27 Fair CLR 5.9 5.2 95% 76.25 0.0
05 06:55 Calm 6.44 Fog/Mist CLR 5.3 4.6 95% 76.23 0.0
05 06:35 Calm 11.27 Fair CLR 4.5 3.6 94% 76.23 0.0
05 06:15 Calm 16.09 Fair CLR 5.5 4.8 95% 76.25 0.0
05 05:55 Calm 4.02 Fog/Mist CLR 5.4 4.5 94% 76.23 0.0
05 05:35 Calm 8.05 Fog/Mist CLR 5.8 5 95% 76.25 0.0
05 05:15 Calm 4.83 Fog/Mist CLR 6.1 5.4 95% 76.25 0.0
05 04:55 Calm 8.05 Fog/Mist CLR 6.5 5.6 94% 76.25 0.0
05 04:35 Calm 16.09 Fair CLR 6.5 5.7 95% 76.23 0.0
05 04:15 Calm 3.22 Fog/Mist CLR 6.6 5.8 95% 76.23 0.0
05 03:55 Calm 8.05 Fog/Mist CLR 6.6 5.7 94% 76.23 0.0
05 03:35 Calm 16.09 Fair CLR 7 5.8 92% 76.23 0.0
05 03:15 Calm 16.09 Fair CLR 7 5.8 92% 76.23 0.0
05 02:55 Calm 16.09 Fair CLR 7.2 6 92% 76.23 0.0
05 02:35 Calm 16.09 Fair CLR 7.8 6.4 91% 76.23 0.0
05 02:15 Calm 16.09 Fair CLR 7.6 6.1 90% 76.23 0.0
05 01:55 Calm 16.09 Fair CLR 7.4 5.7 19.9 7.4 89% 76.23 0.0
05 01:35 Calm 16.09 Fair CLR 8 6.2 89% 76.23 0.0
05 01:15 Calm 16.09 Fair CLR 8.2 6.4 89% 76.23 0.0
05 00:55 Calm 16.09 Fair CLR 8.7 6.6 87% 76.23 0.0
05 00:35 Calm 16.09 Fair CLR 9.4 7.1 86% 76.23 0.0
05 00:15 Calm 16.09 Fair CLR 9.4 6.9 85% 76.23 0.0
04 23:55 Calm 16.09 Fair CLR 9.9 7.1 83% 76.23 0.0
04 23:35 Calm 16.09 Fair CLR 10.5 7.3 81% 76.23 0.0
04 23:15 Calm 16.09 Fair CLR 11 7.5 79% 76.23 0.0
04 22:55 Calm 16.09 Fair CLR 11.4 7.2 76% 76.23 0.0
04 22:35 Calm 16.09 Fair CLR 12 7.7 75% 76.23 0.0
04 22:15 Calm 16.09 Fair CLR 12.5 7.6 72% 76.23 0.0
04 21:55 Calm 16.09 Fair CLR 13.5 7.7 68% 76.2 0.0
04 21:35 Calm 16.09 Fair CLR 14.2 7.7 65% 76.17 0.0
04 21:15 Calm 16.09 Fair CLR 14.4 7.5 63% 76.17 0.0
04 20:55 Calm 16.09 Fair CLR 15 7.4 61% 76.15 0.0
04 20:35 Calm 16.09 Fair CLR 16.8 7.2 53% 76.12 0.0
04 20:15 W 6 16.09 Fair CLR 18.8 7.1 47% 76.12 0.0
04 19:55 W 7 16.09 Fair CLR 20.6 5.9 25.2 20.6 38% 76.1 0.0
04 19:35 W 7 16.09 Fair CLR 21.9 5.8 35% 76.1 0.0
04 19:15 SW 11 16.09 Fair CLR 22.1 4.6 32% 76.1 0.0
04 18:55 W 15 16.09 Fair CLR 22.8 5.4 32% 76.07 0.0
04 18:35 SW 19 G 28 16.09 Fair CLR 23.3 6.3 33% 76.1 0.0
04 18:15 SW 11 16.09 Fair CLR 23.9 5.7 31% 25 76.07 0.0
04 17:55 W 19 16.09 Fair CLR 24.6 5.9 30% 25 76.07 0.0
04 17:35 W 19 16.09 Fair CLR 24.7 5.1 28% 25 76.07 0.0
04 17:15 W 13 16.09 Fair CLR 24.6 4.6 27% 25 76.07 0.0
04 16:55 W 17 16.09 Fair CLR 24.7 4 26% 25 76.1 0.0
04 16:35 W 13 16.09 Fair CLR 24.6 4.7 28% 25 76.1 0.0
04 16:15 SW 7 16.09 Fair CLR 24.6 4.9 28% 25 76.12 0.0
04 15:55 W 20 G 30 16.09 Fair CLR 24.7 5.2 28% 25 76.12 0.0
04 15:35 SW 13 G 28 16.09 Fair CLR 24.3 4.2 27% 25 76.15 0.0
04 15:15 W 13 16.09 Fair CLR 24 4.3 28% 25 76.17 0.0
04 14:55 W 17 16.09 Fair CLR 24.2 4.6 28% 25 76.2 0.0
04 14:35 W 17 16.09 Fair CLR 23.6 4.6 29% 76.23 0.0
04 13:55 W 17 16.09 Fair CLR 22.6 6.5 22.9 4.7 35% 76.23 0.0
04 13:35 SW 13 16.09 Fair CLR 22.5 6.4 35% 76.25 0.0
04 13:15 W 15 16.09 Fair CLR 21.3 6 37% 76.28 0.0
04 12:35 W 9 16.09 Fair CLR 20.1 5.6 39% 76.33 0.0
04 12:15 NW 9 16.09 Fair CLR 19.6 5.6 40% 76.35 0.0
04 11:55 W 7 16.09 Fair CLR 18.6 5 41% 76.38 0.0
04 11:35 NW 7 16.09 Fair CLR 18.7 4.2 38% 76.4 0.0
04 11:15 Calm 16.09 Fair CLR 17.7 4.3 41% 76.43 0.0
04 10:55 Calm 16.09 Fair CLR 16.5 3.6 42% 76.43 0.0
04 10:35 Calm 16.09 Fair CLR 15.4 3.5 45% 76.45 0.0
04 10:15 Calm 16.09 Fair CLR 14.2 4.1 51% 76.48 0.0
04 09:55 Calm 16.09 Fair CLR 12.8 5.4 61% 76.48 0.0
04 09:35 Calm 16.09 Fair CLR 10.6 5.7 72% 76.5 0.0
04 09:15 Calm 16.09 Fair CLR 8.7 5.5 81% 76.5 0.0
04 08:55 Calm 16.09 Fair CLR 7.3 5 86% 76.5 0.0
04 08:35 Calm 16.09 Fair CLR 5.8 4 88% 76.5 0.0
04 08:15 Calm 16.09 Fair CLR 5.1 3.8 91% 76.45 0.0
04 07:55 Calm 16.09 Fair CLR 4.7 3.6 4.7 1.4 93% 76.45 0.0
04 07:35 Calm 16.09 Fair CLR 3.3 2.3 93% 76.45 0.0
04 07:15 Calm 16.09 Fair CLR 2.3 1.4 94% 76.45 0.0
04 06:55 Calm 16.09 Fair CLR 1.7 0.7 93% 76.45 0.0
04 06:35 Calm 16.09 Fair CLR 2 0.9 93% 76.43 0.0
04 06:15 Calm 16.09 Fair CLR 2.2 1.1 93% 76.43 0.0
04 05:55 Calm 16.09 Fair CLR 2.1 1 93% 76.43 0.0
04 05:35 Calm 16.09 Fair CLR 2.2 1 92% 76.45 0.0
04 05:15 Calm 16.09 Fair CLR 2.5 1.5 93% 76.45 0.0
04 04:55 Calm 16.09 Fair CLR 2.5 1.3 92% 76.45 0.0
04 04:35 Calm 16.09 Fair CLR 2.6 1.2 91% 76.45 0.0
04 04:15 Calm 16.09 Fair CLR 2.4 1 91% 76.43 0.0
04 03:55 Calm 16.09 Fair CLR 2.5 1.1 91% 76.43 0.0
04 03:35 Calm 16.09 Fair CLR 3.1 1.7 91% 76.45 0.0
04 03:15 Calm 16.09 Fair CLR 3.1 1.6 90% 76.45 0.0
04 02:55 Calm 16.09 Fair CLR 3 1.3 89% 76.45 0.0
04 02:35 Calm 16.09 Fair CLR 3.1 1.5 89% 76.45 0.0
04 02:15 Calm 16.09 Fair CLR 3.6 1.9 89% 76.45 0.0
04 01:55 Calm 16.09 Fair CLR 3.5 1.5 14.8 3.5 87% 76.48 0.0
04 01:35 Calm 16.09 Fair CLR 3.9 1.7 86% 76.48 0.0
04 01:15 Calm 16.09 Fair CLR 4.1 1.8 85% 76.5 0.0
04 00:35 Calm 16.09 Fair CLR 4.8 2 82% 76.48 0.0
04 00:15 Calm 16.09 Fair CLR 5.3 2.2 81% 76.45 0.0
03 23:55 Calm 16.09 Fair CLR 5.6 2 78% 76.45 0.0
03 23:35 Calm 16.09 Fair CLR 5.8 2.2 78% 76.43 0.0
03 23:15 Calm 16.09 Fair CLR 6.5 2.3 75% 76.43 0.0
03 22:55 Calm 16.09 Fair CLR 6.9 2.5 74% 76.43 0.0
03 22:35 Calm 16.09 Fair CLR 6.9 2.3 73% 76.43 0.0
03 22:15 Calm 16.09 Fair CLR 7.7 2.6 70% 76.43 0.0
03 21:55 Calm 16.09 Fair CLR 8.7 2.3 64% 76.4 0.0
03 21:35 Calm 16.09 Fair CLR 9 2.3 63% 76.38 0.0
03 21:15 N 6 16.09 Fair CLR 10.3 2.2 58% 76.38 0.0
03 20:55 Calm 16.09 Fair CLR 11 2.4 56% 76.35 0.0
03 20:35 NW 7 16.09 Fair CLR 12 2.2 51% 76.33 0.0
03 20:15 Calm 16.09 Fair CLR 13.4 2.1 47% 76.33 0.0
03 19:55 W 6 16.09 Fair CLR 15.3 1.1 19.7 15.3 38% 76.3 0.0
03 19:35 SW 11 16.09 Fair CLR 16.8 0.1 32% 76.3 0.0
03 19:15 SW 17 16.09 Fair CLR 17.6 -0.1 30% 76.3 0.0
03 18:55 SW 19 16.09 Fair CLR 18.1 -0.6 28% 76.3 0.0
03 18:35 SW 19 16.09 Fair CLR 18.8 -0.1 28% 76.3 0.0
03 18:15 SW 19 G 26 16.09 Fair CLR 19 -0.2 28% 76.3 0.0
03 17:55 SW 22 16.09 Fair CLR 19.1 -0.3 27% 76.3 0.0
03 17:35 SW 19 G 26 16.09 Fair CLR 19.2 -0.7 26% 76.3 0.0
03 17:15 SW 17 16.09 Fair CLR 19.6 -1.4 24% 76.33 0.0
03 16:55 SW 15 16.09 Fair CLR 19.3 -2.6 23% 76.35 0.0
03 16:35 SW 17 16.09 Fair CLR 19.7 -1.6 24% 76.35 0.0
03 16:15 W 15 G 28 16.09 Fair CLR 19.5 -1.7 24% 76.38 0.0
03 15:55 SW 19 16.09 Fair CLR 19.5 -0.7 26% 76.4 0.0
03 15:35 W 13 G 26 16.09 Fair CLR 19.1 -0.3 27% 76.4 0.0
03 15:15 SW 13 16.09 Fair CLR 18.7 -0.1 28% 76.43 0.0
03 14:55 W 13 16.09 Fair CLR 19 0.7 29% 76.45 0.0
03 14:35 W 9 16.09 Fair CLR 17.6 0.2 31% 76.45 0.0
03 14:15 S 9 16.09 Fair CLR 17.6 1.4 34% 76.48 0.0
03 13:55 NW 11 16.09 Partly Cloudy SCT060 16.9 1.8 17.2 3.5 36% 76.48 0.0
03 13:35 W 11 G 26 16.09 Fair CLR 17.2 2.1 36% 76.5 0.0
03 13:15 W 11 16.09 Fair CLR 16.2 1.4 37% 76.53 0.0
03 12:55 NE 6 16.09 Fair CLR 15.5 0.7 37% 76.53 0.0
03 12:35 W 9 16.09 Fair CLR 15.1 0.9 38% 76.56 0.0
03 12:15 SW 6 16.09 Fair CLR 14.3 0.4 39% 76.58 0.0
03 11:55 S 7 16.09 Fair CLR 14.4 0.2 38% 76.58 0.0
03 11:35 Calm 16.09 Fair CLR 13.9 0.6 41% 76.61 0.0
03 11:15 S 9 16.09 Fair CLR 13.7 0.7 41% 76.61 0.0
03 10:55 S 7 16.09 Fair CLR 12.7 0.7 44% 76.61 0.0
03 10:35 S 6 16.09 Fair CLR 12.2 0.6 45% 76.61 0.0
03 10:15 E 6 16.09 Fair CLR 11.7 1.2 49% 76.61 0.0
03 09:55 SE 7 16.09 Fair CLR 11.1 1.1 50% 76.61 0.0
03 09:35 Calm 16.09 Fair CLR 9.5 3.6 67% 76.61 0.0
03 09:15 Calm 16.09 Fair CLR 7.6 4.2 79% 76.63 0.0
03 08:55 Calm 16.09 Fair CLR 6.2 3.8 85% 76.63 0.0
03 08:35 Calm 16.09 Fair CLR 5.2 3.5 89% 76.63 0.0
03 08:15 Calm 16.09 Fair CLR 4.3 2.8 90% 76.63 0.0
03 07:55 Calm 16.09 Fair CLR 3.3 2.2 5 0.9 93% 76.63 0.0
03 07:35 Calm 16.09 Fair CLR 2.2 1.1 93% 76.61 0.0
03 07:15 Calm 16.09 Fair CLR 1.5 0.5 93% 76.56 0.0
03 06:55 Calm 16.09 Fair CLR 1.3 0.1 92% 76.53 0.0
03 06:35 Calm 16.09 Fair CLR 1.7 0.6 93% 76.53 0.0
03 06:15 Calm 16.09 Fair CLR 1.1 -0.1 92% 76.53 0.0
03 05:55 Calm 16.09 Fair CLR 1.8 0.5 91% 76.5 0.0
03 05:35 Calm 16.09 Fair CLR 1.8 0.3 90% 76.48 0.0
03 05:15 Calm 16.09 Fair CLR 2.2 0.7 90% 76.45 0.0
03 04:55 Calm 16.09 Fair CLR 2.4 0.8 89% 76.45 0.0
03 04:35 Calm 16.09 Fair CLR 2.4 0.7 89% 76.45 0.0
03 04:15 Calm 16.09 Fair CLR 2.6 0.7 87% 76.43 0.0
03 03:55 Calm 16.09 Fair CLR 2.7 0.9 88% 76.43 0.0
03 03:35 Calm 16.09 Fair CLR 3.2 1.3 88% 76.43 0.0
03 03:15 Calm 16.09 Fair CLR 3.6 1.6 87% 76.4 0.0
03 02:55 Calm 16.09 Fair CLR 3.6 1.3 85% 76.38 0.0
03 02:35 Calm 16.09 Fair CLR 3.9 1.2 83% 76.38 0.0
03 02:15 Calm 16.09 Fair CLR 4.5 2.3 86% 76.38 0.0
03 01:55 Calm 16.09 Fair CLR 4.6 1.8 12.5 4.6 82% 76.38 0.0
03 01:35 Calm 16.09 Fair CLR 5 1.8 80% 76.38 0.0
03 01:15 Calm 16.09 Fair CLR 5.6 2.1 78% 76.38 0.0
03 00:55 Calm 16.09 Partly Cloudy SCT070 SCT080 6.6 2.9 77% 76.38 0.0
03 00:35 Calm 16.09 Overcast BKN065 OVC080 7.1 3.5 78% 76.38 0.0
03 00:15 Calm 16.09 Overcast BKN065 OVC085 7.1 3.1 76% 76.38 0.0
02 23:55 Calm 16.09 Overcast BKN065 OVC080 7.1 3.5 78% 76.38 0.0
02 23:35 Calm 16.09 Overcast SCT070 OVC085 7 3 76% 76.35 0.0
02 23:15 Calm 16.09 Overcast BKN075 OVC090 6.9 2.8 75% 76.33 0.0
02 22:55 Calm 16.09 Mostly Cloudy SCT080 BKN085 BKN110 6.3 2.2 75% 76.33 0.0
02 22:35 Calm 16.09 Partly Cloudy SCT090 6 1.5 73% 76.3 0.0
02 22:15 Calm 16.09 Fair CLR 7 1.5 68% 76.3 0.0
02 21:55 Calm 16.09 Fair CLR 6.7 1.5 70% 76.28 0.0
02 21:35 Calm 16.09 Fair CLR 8.4 1 60% 76.28 0.0
02 21:15 NW 7 16.09 Fair CLR 8.7 1 59% 8 76.25 0.0
02 20:55 NW 6 16.09 Fair CLR 8.7 1.3 60% 76.23 0.0
02 20:35 Calm 16.09 Fair CLR 9.9 0.9 54% 76.2 0.0
02 20:15 N 7 16.09 Partly Cloudy SCT080 12 -0.7 42% 76.17 0.0
02 19:55 NE 11 16.09 Partly Cloudy SCT080 12.7 -0.6 17.6 12.7 40% 76.15 0.0
02 19:35 N 6 16.09 Partly Cloudy SCT085 SCT090 14 -1.5 35% 76.12 0.0
02 19:15 NE 13 16.09 Mostly Cloudy BKN085 13.8 -1.8 34% 76.12 0.0
02 18:55 N 15 16.09 Partly Cloudy SCT085 14.3 -2.5 31% 76.12 0.0
02 18:35 NW 6 16.09 Partly Cloudy SCT090 15.3 -3 28% 76.12 0.0
02 18:15 N 9 16.09 Fair CLR 15 -3.8 27% 76.12 0.0
02 17:55 N 15 G 30 16.09 Partly Cloudy SCT080 14.9 -4.1 27% 76.1 0.0
02 17:35 N 20 G 35 16.09 Fair CLR 16.3 -3.2 26% 76.07 0.0
02 17:15 N 22 G 30 16.09 Fair CLR 16.5 -3.2 26% 76.05 0.0
02 16:55 N 13 G 33 16.09 Fair CLR 16.7 -2.5 27% 76.05 0.0
02 16:35 N 17 G 26 16.09 Fair CLR 17 -3.6 24% 76.02 0.0
02 16:15 N 22 G 35 16.09 Fair CLR 17 -2 27% 76.02 0.0
02 15:55 N 19 G 33 16.09 Fair CLR 17.1 -2.2 27% 76.02 0.0
02 15:35 NW 22 G 33 16.09 Fair CLR 17.4 -2.6 26% 76.02 0.0
02 15:15 N 24 G 37 16.09 Fair CLR 17.2 -2.2 27% 76 0.0
02 14:55 N 19 G 26 16.09 Partly Cloudy SCT075 17.5 -1.6 27% 76 0.0
02 14:35 N 13 16.09 Mostly Cloudy BKN075 16.7 -0.9 30% 76.02 0.0
02 14:15 N 13 G 30 16.09 Mostly Cloudy BKN075 16.6 -0.9 31% 76.02 0.0
02 13:55 NE 19 G 28 16.09 Partly Cloudy SCT055 SCT075 16.6 0.3 17 10.5 33% 76.02 0.0
02 13:35 NE 13 16.09 Mostly Cloudy BKN055 16.9 1.5 36% 76.02 0.0
02 13:15 NE 11 G 26 16.09 Mostly Cloudy BKN060 BKN070 16.6 2 38% 76.05 0.0
02 12:55 N 15 G 26 16.09 Mostly Cloudy BKN070 16.8 2.7 39% 76.05 0.0
02 12:35 NW 20 16.09 Overcast BKN060 OVC070 15.2 2.1 41% 76.07 0.0
02 12:15 N 15 16.09 Overcast BKN060 OVC070 15.2 3 44% 76.1 0.0
02 11:55 NE 11 16.09 Mostly Cloudy SCT047 BKN070 15.7 3.9 46% 76.07 0.0
02 11:35 NE 6 16.09 Partly Cloudy SCT047 16.1 4.2 45% 76.07 0.0
02 11:15 E 7 16.09 Fair CLR 15.4 4.2 47% 76.07 0.0
Date Time (edt) Wind (kph) Vis. (km) Weather Sky Cond. Air Dwpt Max. Min. Relative Humidity Wind Chill (°C) Heat Index (°C) altimeter (cm) sea level (mb) 1 hr 3 hr 6 hr
6 hour
Temperature (ºC) Pressure Precipitation (cm)